sensor_id;sensor_type;location;lat;lon;timestamp;P1;durP1;ratioP1;P2;durP2;ratioP2
83471;SDS011;74051;47.120;18.370;2023-11-21T00:02:23;21.48;;;11.45;;
83471;SDS011;74051;47.120;18.370;2023-11-21T00:04:50;21.65;;;10.95;;
83471;SDS011;74051;47.120;18.370;2023-11-21T00:07:16;17.85;;;10.70;;
83471;SDS011;74051;47.120;18.370;2023-11-21T00:09:43;18.38;;;10.80;;
83471;SDS011;74051;47.120;18.370;2023-11-21T00:12:09;21.10;;;11.63;;
83471;SDS011;74051;47.120;18.370;2023-11-21T00:14:36;19.98;;;11.80;;
83471;SDS011;74051;47.120;18.370;2023-11-21T00:17:04;22.60;;;11.50;;
83471;SDS011;74051;47.120;18.370;2023-11-21T00:19:31;22.30;;;11.43;;
83471;SDS011;74051;47.120;18.370;2023-11-21T00:21:59;23.17;;;11.57;;
83471;SDS011;74051;47.120;18.370;2023-11-21T00:24:26;22.02;;;10.75;;
83471;SDS011;74051;47.120;18.370;2023-11-21T00:26:52;20.98;;;11.80;;
83471;SDS011;74051;47.120;18.370;2023-11-21T00:29:19;19.63;;;11.10;;
83471;SDS011;74051;47.120;18.370;2023-11-21T00:31:45;22.38;;;11.82;;
83471;SDS011;74051;47.120;18.370;2023-11-21T00:34:12;20.48;;;11.80;;
83471;SDS011;74051;47.120;18.370;2023-11-21T00:36:39;19.38;;;11.40;;
83471;SDS011;74051;47.120;18.370;2023-11-21T00:39:05;20.70;;;11.48;;
83471;SDS011;74051;47.120;18.370;2023-11-21T00:41:34;22.08;;;11.98;;
83471;SDS011;74051;47.120;18.370;2023-11-21T00:44:02;18.50;;;10.52;;
83471;SDS011;74051;47.120;18.370;2023-11-21T00:46:29;27.83;;;12.60;;
83471;SDS011;74051;47.120;18.370;2023-11-21T00:48:56;24.73;;;13.63;;
83471;SDS011;74051;47.120;18.370;2023-11-21T00:51:23;25.35;;;13.20;;
83471;SDS011;74051;47.120;18.370;2023-11-21T00:53:50;24.17;;;12.23;;
83471;SDS011;74051;47.120;18.370;2023-11-21T00:56:18;23.27;;;12.10;;
83471;SDS011;74051;47.120;18.370;2023-11-21T00:58:44;26.88;;;12.90;;
83471;SDS011;74051;47.120;18.370;2023-11-21T01:01:15;23.85;;;12.05;;
83471;SDS011;74051;47.120;18.370;2023-11-21T01:03:42;27.73;;;11.75;;
83471;SDS011;74051;47.120;18.370;2023-11-21T01:06:09;22.55;;;12.38;;
83471;SDS011;74051;47.120;18.370;2023-11-21T01:08:36;20.80;;;11.85;;
83471;SDS011;74051;47.120;18.370;2023-11-21T01:11:02;20.70;;;9.98;;
83471;SDS011;74051;47.120;18.370;2023-11-21T01:13:30;18.70;;;10.45;;
83471;SDS011;74051;47.120;18.370;2023-11-21T01:15:56;21.65;;;10.18;;
83471;SDS011;74051;47.120;18.370;2023-11-21T01:18:23;17.92;;;11.38;;
83471;SDS011;74051;47.120;18.370;2023-11-21T01:20:51;18.20;;;11.07;;
83471;SDS011;74051;47.120;18.370;2023-11-21T01:23:19;20.67;;;10.13;;
83471;SDS011;74051;47.120;18.370;2023-11-21T01:25:46;17.77;;;9.90;;
83471;SDS011;74051;47.120;18.370;2023-11-21T01:28:12;18.67;;;10.02;;
83471;SDS011;74051;47.120;18.370;2023-11-21T01:30:39;19.58;;;10.07;;
83471;SDS011;74051;47.120;18.370;2023-11-21T01:33:05;27.65;;;10.93;;
83471;SDS011;74051;47.120;18.370;2023-11-21T01:35:32;27.15;;;12.55;;
83471;SDS011;74051;47.120;18.370;2023-11-21T01:37:58;22.77;;;10.95;;
83471;SDS011;74051;47.120;18.370;2023-11-21T01:40:25;15.75;;;9.93;;
83471;SDS011;74051;47.120;18.370;2023-11-21T01:42:52;19.48;;;10.13;;
83471;SDS011;74051;47.120;18.370;2023-11-21T01:45:19;15.32;;;9.13;;
83471;SDS011;74051;47.120;18.370;2023-11-21T01:47:46;16.88;;;10.30;;
83471;SDS011;74051;47.120;18.370;2023-11-21T01:50:16;21.80;;;11.50;;
83471;SDS011;74051;47.120;18.370;2023-11-21T01:52:46;15.48;;;9.38;;
83471;SDS011;74051;47.120;18.370;2023-11-21T01:55:14;17.35;;;10.55;;
83471;SDS011;74051;47.120;18.370;2023-11-21T01:57:45;19.02;;;10.80;;
83471;SDS011;74051;47.120;18.370;2023-11-21T02:00:12;20.02;;;11.52;;
83471;SDS011;74051;47.120;18.370;2023-11-21T02:02:42;20.38;;;10.88;;
83471;SDS011;74051;47.120;18.370;2023-11-21T02:05:13;17.83;;;10.57;;
83471;SDS011;74051;47.120;18.370;2023-11-21T02:07:41;19.83;;;10.77;;
83471;SDS011;74051;47.120;18.370;2023-11-21T02:10:12;21.10;;;10.48;;
83471;SDS011;74051;47.120;18.370;2023-11-21T02:12:41;21.38;;;10.73;;
83471;SDS011;74051;47.120;18.370;2023-11-21T02:15:08;29.15;;;13.32;;
83471;SDS011;74051;47.120;18.370;2023-11-21T02:17:41;22.45;;;11.07;;
83471;SDS011;74051;47.120;18.370;2023-11-21T02:20:13;20.45;;;11.45;;
83471;SDS011;74051;47.120;18.370;2023-11-21T02:22:48;23.25;;;11.55;;
83471;SDS011;74051;47.120;18.370;2023-11-21T02:25:16;23.40;;;13.65;;
83471;SDS011;74051;47.120;18.370;2023-11-21T02:27:42;22.02;;;12.63;;
83471;SDS011;74051;47.120;18.370;2023-11-21T02:30:09;24.35;;;11.55;;
83471;SDS011;74051;47.120;18.370;2023-11-21T02:32:39;18.00;;;10.85;;
83471;SDS011;74051;47.120;18.370;2023-11-21T02:35:06;25.35;;;11.38;;
83471;SDS011;74051;47.120;18.370;2023-11-21T02:37:34;17.00;;;10.45;;
83471;SDS011;74051;47.120;18.370;2023-11-21T02:40:01;9.00;;;5.90;;
83471;SDS011;74051;47.120;18.370;2023-11-21T02:42:33;21.92;;;9.93;;
83471;SDS011;74051;47.120;18.370;2023-11-21T02:45:00;19.20;;;10.70;;
83471;SDS011;74051;47.120;18.370;2023-11-21T02:47:26;17.95;;;9.75;;
83471;SDS011;74051;47.120;18.370;2023-11-21T02:49:53;18.27;;;10.80;;
83471;SDS011;74051;47.120;18.370;2023-11-21T02:52:19;21.35;;;10.52;;
83471;SDS011;74051;47.120;18.370;2023-11-21T02:54:47;19.35;;;11.13;;
83471;SDS011;74051;47.120;18.370;2023-11-21T02:57:13;17.25;;;9.63;;
83471;SDS011;74051;47.120;18.370;2023-11-21T02:59:39;16.20;;;9.75;;
83471;SDS011;74051;47.120;18.370;2023-11-21T03:02:06;16.27;;;10.13;;
83471;SDS011;74051;47.120;18.370;2023-11-21T03:04:34;18.75;;;10.30;;
83471;SDS011;74051;47.120;18.370;2023-11-21T03:07:01;18.30;;;11.05;;
83471;SDS011;74051;47.120;18.370;2023-11-21T03:09:27;15.30;;;9.43;;
83471;SDS011;74051;47.120;18.370;2023-11-21T03:11:54;20.13;;;11.13;;
83471;SDS011;74051;47.120;18.370;2023-11-21T03:14:21;22.60;;;12.57;;
83471;SDS011;74051;47.120;18.370;2023-11-21T03:16:48;21.90;;;11.45;;
83471;SDS011;74051;47.120;18.370;2023-11-21T03:19:15;27.48;;;12.90;;
83471;SDS011;74051;47.120;18.370;2023-11-21T03:21:41;23.08;;;9.88;;
83471;SDS011;74051;47.120;18.370;2023-11-21T03:24:08;25.98;;;11.38;;
83471;SDS011;74051;47.120;18.370;2023-11-21T03:26:35;25.00;;;11.38;;
83471;SDS011;74051;47.120;18.370;2023-11-21T03:29:04;20.58;;;10.48;;
83471;SDS011;74051;47.120;18.370;2023-11-21T03:31:30;22.75;;;10.65;;
83471;SDS011;74051;47.120;18.370;2023-11-21T03:33:57;14.65;;;7.78;;
83471;SDS011;74051;47.120;18.370;2023-11-21T03:36:23;15.45;;;7.57;;
83471;SDS011;74051;47.120;18.370;2023-11-21T03:38:52;17.80;;;7.85;;
83471;SDS011;74051;47.120;18.370;2023-11-21T03:41:19;15.88;;;8.30;;
83471;SDS011;74051;47.120;18.370;2023-11-21T03:43:46;14.93;;;8.77;;
83471;SDS011;74051;47.120;18.370;2023-11-21T03:46:14;16.13;;;7.75;;
83471;SDS011;74051;47.120;18.370;2023-11-21T03:48:40;16.52;;;8.88;;
83471;SDS011;74051;47.120;18.370;2023-11-21T03:51:08;13.77;;;8.77;;
83471;SDS011;74051;47.120;18.370;2023-11-21T03:53:34;13.55;;;8.38;;
83471;SDS011;74051;47.120;18.370;2023-11-21T03:56:02;16.00;;;8.32;;
83471;SDS011;74051;47.120;18.370;2023-11-21T03:58:29;12.68;;;7.47;;
83471;SDS011;74051;47.120;18.370;2023-11-21T04:00:55;16.02;;;9.35;;
83471;SDS011;74051;47.120;18.370;2023-11-21T04:03:22;13.57;;;7.78;;
83471;SDS011;74051;47.120;18.370;2023-11-21T04:05:48;13.15;;;7.57;;
83471;SDS011;74051;47.120;18.370;2023-11-21T04:08:15;18.27;;;9.88;;
83471;SDS011;74051;47.120;18.370;2023-11-21T04:10:41;16.70;;;9.05;;
83471;SDS011;74051;47.120;18.370;2023-11-21T04:13:08;17.52;;;9.27;;
83471;SDS011;74051;47.120;18.370;2023-11-21T04:15:34;18.73;;;8.98;;
83471;SDS011;74051;47.120;18.370;2023-11-21T04:18:00;16.63;;;8.85;;
83471;SDS011;74051;47.120;18.370;2023-11-21T04:20:27;17.98;;;8.60;;
83471;SDS011;74051;47.120;18.370;2023-11-21T04:22:53;16.30;;;9.55;;
83471;SDS011;74051;47.120;18.370;2023-11-21T04:25:20;18.88;;;10.27;;
83471;SDS011;74051;47.120;18.370;2023-11-21T04:27:46;18.48;;;10.05;;
83471;SDS011;74051;47.120;18.370;2023-11-21T04:30:13;14.75;;;9.68;;
83471;SDS011;74051;47.120;18.370;2023-11-21T04:32:40;18.30;;;9.23;;
83471;SDS011;74051;47.120;18.370;2023-11-21T04:35:08;21.13;;;10.23;;
83471;SDS011;74051;47.120;18.370;2023-11-21T04:37:34;16.42;;;10.15;;
83471;SDS011;74051;47.120;18.370;2023-11-21T04:40:01;15.57;;;9.07;;
83471;SDS011;74051;47.120;18.370;2023-11-21T04:42:27;16.67;;;9.75;;
83471;SDS011;74051;47.120;18.370;2023-11-21T04:44:55;17.48;;;10.40;;
83471;SDS011;74051;47.120;18.370;2023-11-21T04:47:21;25.25;;;10.35;;
83471;SDS011;74051;47.120;18.370;2023-11-21T04:49:48;16.88;;;10.00;;
83471;SDS011;74051;47.120;18.370;2023-11-21T04:52:14;18.13;;;9.40;;
83471;SDS011;74051;47.120;18.370;2023-11-21T04:54:40;14.43;;;8.77;;
83471;SDS011;74051;47.120;18.370;2023-11-21T04:57:07;17.92;;;9.27;;
83471;SDS011;74051;47.120;18.370;2023-11-21T04:59:34;15.55;;;9.10;;
83471;SDS011;74051;47.120;18.370;2023-11-21T05:02:00;15.80;;;9.40;;
83471;SDS011;74051;47.120;18.370;2023-11-21T05:04:27;17.55;;;10.93;;
83471;SDS011;74051;47.120;18.370;2023-11-21T05:06:53;19.10;;;10.68;;
83471;SDS011;74051;47.120;18.370;2023-11-21T05:09:19;18.83;;;10.68;;
83471;SDS011;74051;47.120;18.370;2023-11-21T05:11:45;21.27;;;10.18;;
83471;SDS011;74051;47.120;18.370;2023-11-21T05:14:12;21.33;;;10.25;;
83471;SDS011;74051;47.120;18.370;2023-11-21T05:16:40;18.88;;;9.90;;
83471;SDS011;74051;47.120;18.370;2023-11-21T05:19:06;18.60;;;9.20;;
83471;SDS011;74051;47.120;18.370;2023-11-21T05:21:33;23.13;;;11.02;;
83471;SDS011;74051;47.120;18.370;2023-11-21T05:23:59;18.38;;;9.35;;
83471;SDS011;74051;47.120;18.370;2023-11-21T05:26:25;19.45;;;9.52;;
83471;SDS011;74051;47.120;18.370;2023-11-21T05:28:52;15.82;;;9.27;;
83471;SDS011;74051;47.120;18.370;2023-11-21T05:31:18;17.90;;;10.45;;
83471;SDS011;74051;47.120;18.370;2023-11-21T05:33:45;20.55;;;10.70;;
83471;SDS011;74051;47.120;18.370;2023-11-21T05:36:11;62.05;;;24.30;;
83471;SDS011;74051;47.120;18.370;2023-11-21T05:38:38;18.45;;;9.02;;
83471;SDS011;74051;47.120;18.370;2023-11-21T05:41:04;16.73;;;8.52;;
83471;SDS011;74051;47.120;18.370;2023-11-21T05:43:31;15.63;;;8.23;;
83471;SDS011;74051;47.120;18.370;2023-11-21T05:45:58;11.90;;;6.75;;
83471;SDS011;74051;47.120;18.370;2023-11-21T05:48:24;15.20;;;6.70;;
83471;SDS011;74051;47.120;18.370;2023-11-21T05:50:51;13.85;;;6.28;;
83471;SDS011;74051;47.120;18.370;2023-11-21T05:53:18;15.73;;;7.07;;
83471;SDS011;74051;47.120;18.370;2023-11-21T05:55:44;12.20;;;6.55;;
83471;SDS011;74051;47.120;18.370;2023-11-21T05:58:10;10.55;;;4.80;;
83471;SDS011;74051;47.120;18.370;2023-11-21T06:00:38;12.20;;;6.05;;
83471;SDS011;74051;47.120;18.370;2023-11-21T06:03:04;13.57;;;6.82;;
83471;SDS011;74051;47.120;18.370;2023-11-21T06:05:32;12.95;;;5.57;;
83471;SDS011;74051;47.120;18.370;2023-11-21T06:07:59;12.60;;;5.82;;
83471;SDS011;74051;47.120;18.370;2023-11-21T06:10:26;14.60;;;6.70;;
83471;SDS011;74051;47.120;18.370;2023-11-21T06:12:54;12.68;;;5.85;;
83471;SDS011;74051;47.120;18.370;2023-11-21T06:15:20;13.27;;;5.63;;
83471;SDS011;74051;47.120;18.370;2023-11-21T06:17:49;12.73;;;6.43;;
83471;SDS011;74051;47.120;18.370;2023-11-21T06:20:18;15.90;;;7.32;;
83471;SDS011;74051;47.120;18.370;2023-11-21T06:22:45;14.77;;;6.93;;
83471;SDS011;74051;47.120;18.370;2023-11-21T06:25:13;12.95;;;6.80;;
83471;SDS011;74051;47.120;18.370;2023-11-21T06:27:42;14.85;;;6.68;;
83471;SDS011;74051;47.120;18.370;2023-11-21T06:30:13;10.70;;;5.88;;
83471;SDS011;74051;47.120;18.370;2023-11-21T06:32:41;9.32;;;5.45;;
83471;SDS011;74051;47.120;18.370;2023-11-21T06:35:11;9.57;;;5.30;;
83471;SDS011;74051;47.120;18.370;2023-11-21T06:37:39;11.40;;;5.40;;
83471;SDS011;74051;47.120;18.370;2023-11-21T06:40:05;14.13;;;7.07;;
83471;SDS011;74051;47.120;18.370;2023-11-21T06:42:33;12.93;;;7.10;;
83471;SDS011;74051;47.120;18.370;2023-11-21T06:44:59;13.00;;;6.38;;
83471;SDS011;74051;47.120;18.370;2023-11-21T06:47:29;13.40;;;7.13;;
83471;SDS011;74051;47.120;18.370;2023-11-21T06:49:56;16.98;;;6.43;;
83471;SDS011;74051;47.120;18.370;2023-11-21T06:52:24;11.20;;;5.43;;
83471;SDS011;74051;47.120;18.370;2023-11-21T06:54:50;14.05;;;6.47;;
83471;SDS011;74051;47.120;18.370;2023-11-21T06:57:17;28.42;;;14.18;;
83471;SDS011;74051;47.120;18.370;2023-11-21T06:59:43;25.10;;;11.43;;
83471;SDS011;74051;47.120;18.370;2023-11-21T07:02:10;17.35;;;8.85;;
83471;SDS011;74051;47.120;18.370;2023-11-21T07:04:37;18.63;;;7.60;;
83471;SDS011;74051;47.120;18.370;2023-11-21T07:07:03;13.73;;;6.70;;
83471;SDS011;74051;47.120;18.370;2023-11-21T07:09:30;11.18;;;5.07;;
83471;SDS011;74051;47.120;18.370;2023-11-21T07:11:57;12.23;;;4.78;;
83471;SDS011;74051;47.120;18.370;2023-11-21T07:14:23;12.98;;;5.90;;
83471;SDS011;74051;47.120;18.370;2023-11-21T07:16:50;11.98;;;5.43;;
83471;SDS011;74051;47.120;18.370;2023-11-21T07:19:18;10.60;;;4.85;;
83471;SDS011;74051;47.120;18.370;2023-11-21T07:21:45;11.00;;;5.47;;
83471;SDS011;74051;47.120;18.370;2023-11-21T07:24:12;9.60;;;4.97;;
83471;SDS011;74051;47.120;18.370;2023-11-21T07:26:39;12.77;;;5.18;;
83471;SDS011;74051;47.120;18.370;2023-11-21T07:29:06;10.15;;;5.35;;
83471;SDS011;74051;47.120;18.370;2023-11-21T07:31:32;10.68;;;5.53;;
83471;SDS011;74051;47.120;18.370;2023-11-21T07:34:01;11.40;;;5.43;;
83471;SDS011;74051;47.120;18.370;2023-11-21T07:36:27;18.45;;;6.82;;
83471;SDS011;74051;47.120;18.370;2023-11-21T07:38:53;9.05;;;5.20;;
83471;SDS011;74051;47.120;18.370;2023-11-21T07:41:20;12.45;;;5.38;;
83471;SDS011;74051;47.120;18.370;2023-11-21T07:43:47;15.60;;;6.18;;
83471;SDS011;74051;47.120;18.370;2023-11-21T07:46:13;12.20;;;6.00;;
83471;SDS011;74051;47.120;18.370;2023-11-21T07:48:40;13.05;;;5.43;;
83471;SDS011;74051;47.120;18.370;2023-11-21T07:51:12;9.48;;;5.93;;
83471;SDS011;74051;47.120;18.370;2023-11-21T07:53:39;11.38;;;5.72;;
83471;SDS011;74051;47.120;18.370;2023-11-21T07:56:06;9.23;;;5.38;;
83471;SDS011;74051;47.120;18.370;2023-11-21T07:58:34;10.40;;;6.05;;
83471;SDS011;74051;47.120;18.370;2023-11-21T08:01:02;9.75;;;6.32;;
83471;SDS011;74051;47.120;18.370;2023-11-21T08:03:29;12.10;;;6.35;;
83471;SDS011;74051;47.120;18.370;2023-11-21T08:05:57;9.63;;;5.97;;
83471;SDS011;74051;47.120;18.370;2023-11-21T08:08:26;14.43;;;6.15;;
83471;SDS011;74051;47.120;18.370;2023-11-21T08:10:52;14.90;;;6.93;;
83471;SDS011;74051;47.120;18.370;2023-11-21T08:13:22;11.27;;;6.28;;
83471;SDS011;74051;47.120;18.370;2023-11-21T08:15:55;14.13;;;7.20;;
83471;SDS011;74051;47.120;18.370;2023-11-21T08:18:24;13.55;;;7.43;;
83471;SDS011;74051;47.120;18.370;2023-11-21T08:20:50;12.52;;;6.85;;
83471;SDS011;74051;47.120;18.370;2023-11-21T08:23:17;13.73;;;7.13;;
83471;SDS011;74051;47.120;18.370;2023-11-21T08:25:43;12.30;;;6.10;;
83471;SDS011;74051;47.120;18.370;2023-11-21T08:28:11;12.77;;;6.78;;
83471;SDS011;74051;47.120;18.370;2023-11-21T08:30:37;12.65;;;6.00;;
83471;SDS011;74051;47.120;18.370;2023-11-21T08:33:04;18.92;;;6.63;;
83471;SDS011;74051;47.120;18.370;2023-11-21T08:35:31;14.18;;;6.28;;
83471;SDS011;74051;47.120;18.370;2023-11-21T08:37:57;23.20;;;9.07;;
83471;SDS011;74051;47.120;18.370;2023-11-21T08:40:24;36.33;;;10.60;;
83471;SDS011;74051;47.120;18.370;2023-11-21T08:42:51;23.40;;;8.90;;
83471;SDS011;74051;47.120;18.370;2023-11-21T08:45:23;17.60;;;8.70;;
83471;SDS011;74051;47.120;18.370;2023-11-21T08:47:49;28.05;;;11.73;;
83471;SDS011;74051;47.120;18.370;2023-11-21T08:50:16;52.50;;;20.85;;
83471;SDS011;74051;47.120;18.370;2023-11-21T08:52:42;52.95;;;19.95;;
83471;SDS011;74051;47.120;18.370;2023-11-21T08:55:10;50.00;;;17.67;;
83471;SDS011;74051;47.120;18.370;2023-11-21T08:57:38;36.38;;;13.95;;
83471;SDS011;74051;47.120;18.370;2023-11-21T09:00:09;88.97;;;26.45;;
83471;SDS011;74051;47.120;18.370;2023-11-21T09:02:43;156.02;;;40.17;;
83471;SDS011;74051;47.120;18.370;2023-11-21T09:05:10;81.20;;;28.92;;
83471;SDS011;74051;47.120;18.370;2023-11-21T09:07:38;34.05;;;14.93;;
83471;SDS011;74051;47.120;18.370;2023-11-21T09:10:06;17.40;;;9.07;;
83471;SDS011;74051;47.120;18.370;2023-11-21T09:12:35;18.80;;;9.73;;
83471;SDS011;74051;47.120;18.370;2023-11-21T09:15:06;61.75;;;23.05;;
83471;SDS011;74051;47.120;18.370;2023-11-21T09:17:35;21.08;;;11.02;;
83471;SDS011;74051;47.120;18.370;2023-11-21T09:20:02;21.80;;;10.68;;
83471;SDS011;74051;47.120;18.370;2023-11-21T09:22:34;12.55;;;7.18;;
83471;SDS011;74051;47.120;18.370;2023-11-21T09:25:01;19.70;;;9.90;;
83471;SDS011;74051;47.120;18.370;2023-11-21T09:27:31;13.75;;;8.82;;
83471;SDS011;74051;47.120;18.370;2023-11-21T09:29:57;13.63;;;8.05;;
83471;SDS011;74051;47.120;18.370;2023-11-21T09:32:23;12.82;;;7.63;;
83471;SDS011;74051;47.120;18.370;2023-11-21T09:34:50;14.00;;;8.13;;
83471;SDS011;74051;47.120;18.370;2023-11-21T09:37:17;13.43;;;7.82;;
83471;SDS011;74051;47.120;18.370;2023-11-21T09:39:43;12.18;;;7.18;;
83471;SDS011;74051;47.120;18.370;2023-11-21T09:42:10;14.98;;;8.05;;
83471;SDS011;74051;47.120;18.370;2023-11-21T09:44:43;15.20;;;7.65;;
83471;SDS011;74051;47.120;18.370;2023-11-21T09:47:15;15.88;;;9.07;;
83471;SDS011;74051;47.120;18.370;2023-11-21T09:49:43;18.02;;;9.07;;
83471;SDS011;74051;47.120;18.370;2023-11-21T09:54:44;13.25;;;6.97;;
83471;SDS011;74051;47.120;18.370;2023-11-21T09:57:11;12.38;;;6.93;;
83471;SDS011;74051;47.120;18.370;2023-11-21T09:59:38;19.98;;;7.30;;
83471;SDS011;74051;47.120;18.370;2023-11-21T10:02:04;14.82;;;7.88;;
83471;SDS011;74051;47.120;18.370;2023-11-21T10:04:37;12.70;;;6.95;;
83471;SDS011;74051;47.120;18.370;2023-11-21T10:07:03;16.52;;;8.15;;
83471;SDS011;74051;47.120;18.370;2023-11-21T10:09:36;13.43;;;7.25;;
83471;SDS011;74051;47.120;18.370;2023-11-21T10:12:04;13.13;;;6.50;;
83471;SDS011;74051;47.120;18.370;2023-11-21T10:14:35;16.92;;;6.82;;
83471;SDS011;74051;47.120;18.370;2023-11-21T10:17:04;15.05;;;8.02;;
83471;SDS011;74051;47.120;18.370;2023-11-21T10:19:35;10.18;;;6.63;;
83471;SDS011;74051;47.120;18.370;2023-11-21T10:22:02;11.52;;;8.05;;
83471;SDS011;74051;47.120;18.370;2023-11-21T10:24:29;14.27;;;6.65;;
83471;SDS011;74051;47.120;18.370;2023-11-21T10:26:56;13.88;;;4.90;;
83471;SDS011;74051;47.120;18.370;2023-11-21T10:29:22;10.68;;;5.03;;
83471;SDS011;74051;47.120;18.370;2023-11-21T10:31:51;11.98;;;5.40;;
83471;SDS011;74051;47.120;18.370;2023-11-21T10:34:21;9.68;;;4.50;;
83471;SDS011;74051;47.120;18.370;2023-11-21T10:36:48;9.05;;;4.60;;
83471;SDS011;74051;47.120;18.370;2023-11-21T10:39:18;9.55;;;4.15;;
83471;SDS011;74051;47.120;18.370;2023-11-21T10:41:46;10.07;;;4.18;;
83471;SDS011;74051;47.120;18.370;2023-11-21T10:44:14;8.98;;;4.18;;
83471;SDS011;74051;47.120;18.370;2023-11-21T10:46:52;10.30;;;5.10;;
83471;SDS011;74051;47.120;18.370;2023-11-21T10:49:24;9.18;;;4.50;;
83471;SDS011;74051;47.120;18.370;2023-11-21T10:51:52;8.35;;;4.40;;
83471;SDS011;74051;47.120;18.370;2023-11-21T10:54:22;17.73;;;8.35;;
83471;SDS011;74051;47.120;18.370;2023-11-21T10:56:56;10.60;;;4.90;;
83471;SDS011;74051;47.120;18.370;2023-11-21T10:59:28;12.38;;;5.00;;
83471;SDS011;74051;47.120;18.370;2023-11-21T11:01:59;7.25;;;3.92;;
83471;SDS011;74051;47.120;18.370;2023-11-21T11:04:29;8.40;;;3.83;;
83471;SDS011;74051;47.120;18.370;2023-11-21T11:06:57;9.45;;;4.32;;
83471;SDS011;74051;47.120;18.370;2023-11-21T11:09:25;10.82;;;4.93;;
83471;SDS011;74051;47.120;18.370;2023-11-21T11:11:52;16.63;;;7.70;;
83471;SDS011;74051;47.120;18.370;2023-11-21T11:14:20;18.00;;;7.22;;
83471;SDS011;74051;47.120;18.370;2023-11-21T11:19:19;16.23;;;7.03;;
83471;SDS011;74051;47.120;18.370;2023-11-21T11:21:48;11.90;;;4.85;;
83471;SDS011;74051;47.120;18.370;2023-11-21T11:24:33;18.08;;;8.05;;
83471;SDS011;74051;47.120;18.370;2023-11-21T11:32:55;10.85;;;5.57;;
83471;SDS011;74051;47.120;18.370;2023-11-21T11:38:31;8.93;;;4.40;;
83471;SDS011;74051;47.120;18.370;2023-11-21T11:41:01;9.32;;;4.35;;
83471;SDS011;74051;47.120;18.370;2023-11-21T11:43:30;12.82;;;5.15;;
83471;SDS011;74051;47.120;18.370;2023-11-21T11:46:10;15.00;;;5.10;;
83471;SDS011;74051;47.120;18.370;2023-11-21T11:48:40;9.50;;;3.28;;
83471;SDS011;74051;47.120;18.370;2023-11-21T11:51:10;13.05;;;3.97;;
83471;SDS011;74051;47.120;18.370;2023-11-21T11:53:40;14.43;;;4.50;;
83471;SDS011;74051;47.120;18.370;2023-11-21T11:56:27;12.95;;;5.00;;
83471;SDS011;74051;47.120;18.370;2023-11-21T11:58:58;4.28;;;2.70;;
83471;SDS011;74051;47.120;18.370;2023-11-21T12:01:26;5.35;;;2.45;;
83471;SDS011;74051;47.120;18.370;2023-11-21T12:06:43;5.32;;;2.78;;
83471;SDS011;74051;47.120;18.370;2023-11-21T12:09:17;5.75;;;2.40;;
83471;SDS011;74051;47.120;18.370;2023-11-21T12:11:45;3.40;;;2.30;;
83471;SDS011;74051;47.120;18.370;2023-11-21T12:14:13;4.93;;;2.67;;
83471;SDS011;74051;47.120;18.370;2023-11-21T12:16:40;5.72;;;2.85;;
83471;SDS011;74051;47.120;18.370;2023-11-21T12:19:06;9.38;;;4.43;;
83471;SDS011;74051;47.120;18.370;2023-11-21T12:21:33;10.88;;;5.85;;
83471;SDS011;74051;47.120;18.370;2023-11-21T12:23:59;7.40;;;3.25;;
83471;SDS011;74051;47.120;18.370;2023-11-21T12:26:26;4.03;;;2.38;;
83471;SDS011;74051;47.120;18.370;2023-11-21T12:28:53;4.75;;;1.88;;
83471;SDS011;74051;47.120;18.370;2023-11-21T12:31:23;4.22;;;2.10;;
83471;SDS011;74051;47.120;18.370;2023-11-21T12:33:49;3.45;;;1.50;;
83471;SDS011;74051;47.120;18.370;2023-11-21T12:36:16;10.60;;;3.65;;
83471;SDS011;74051;47.120;18.370;2023-11-21T12:38:43;10.10;;;4.45;;
83471;SDS011;74051;47.120;18.370;2023-11-21T12:41:09;13.75;;;6.40;;
83471;SDS011;74051;47.120;18.370;2023-11-21T12:43:36;20.75;;;7.85;;
83471;SDS011;74051;47.120;18.370;2023-11-21T12:46:05;26.55;;;8.90;;
83471;SDS011;74051;47.120;18.370;2023-11-21T12:48:33;26.33;;;9.75;;
83471;SDS011;74051;47.120;18.370;2023-11-21T12:51:00;24.60;;;9.20;;
83471;SDS011;74051;47.120;18.370;2023-11-21T12:53:26;20.33;;;7.35;;
83471;SDS011;74051;47.120;18.370;2023-11-21T12:55:59;14.07;;;6.32;;
83471;SDS011;74051;47.120;18.370;2023-11-21T12:58:27;9.90;;;5.60;;
83471;SDS011;74051;47.120;18.370;2023-11-21T13:00:53;7.38;;;4.72;;
83471;SDS011;74051;47.120;18.370;2023-11-21T13:03:19;11.85;;;4.60;;
83471;SDS011;74051;47.120;18.370;2023-11-21T13:05:51;11.10;;;5.85;;
83471;SDS011;74051;47.120;18.370;2023-11-21T13:08:21;8.98;;;5.18;;
83471;SDS011;74051;47.120;18.370;2023-11-21T13:10:56;10.40;;;4.82;;
83471;SDS011;74051;47.120;18.370;2023-11-21T13:13:23;10.73;;;4.97;;
83471;SDS011;74051;47.120;18.370;2023-11-21T13:15:51;8.70;;;5.45;;
83471;SDS011;74051;47.120;18.370;2023-11-21T13:18:22;11.88;;;6.10;;
83471;SDS011;74051;47.120;18.370;2023-11-21T13:20:49;38.30;;;13.88;;
83471;SDS011;74051;47.120;18.370;2023-11-21T13:23:16;48.00;;;17.38;;
83471;SDS011;74051;47.120;18.370;2023-11-21T13:25:43;37.88;;;15.45;;
83471;SDS011;74051;47.120;18.370;2023-11-21T13:28:11;38.25;;;15.38;;
83471;SDS011;74051;47.120;18.370;2023-11-21T13:30:41;28.50;;;12.55;;
83471;SDS011;74051;47.120;18.370;2023-11-21T13:33:08;20.85;;;8.35;;
83471;SDS011;74051;47.120;18.370;2023-11-21T13:35:36;26.73;;;9.93;;
83471;SDS011;74051;47.120;18.370;2023-11-21T13:38:08;32.78;;;13.02;;
83471;SDS011;74051;47.120;18.370;2023-11-21T13:40:39;36.38;;;13.38;;
83471;SDS011;74051;47.120;18.370;2023-11-21T13:43:12;31.95;;;10.93;;
83471;SDS011;74051;47.120;18.370;2023-11-21T13:45:40;17.55;;;7.30;;
83471;SDS011;74051;47.120;18.370;2023-11-21T13:48:07;14.05;;;4.80;;
83471;SDS011;74051;47.120;18.370;2023-11-21T13:50:36;6.40;;;3.40;;
83471;SDS011;74051;47.120;18.370;2023-11-21T13:53:03;9.57;;;3.75;;
83471;SDS011;74051;47.120;18.370;2023-11-21T13:55:48;9.10;;;4.03;;
83471;SDS011;74051;47.120;18.370;2023-11-21T13:58:23;6.32;;;3.63;;
83471;SDS011;74051;47.120;18.370;2023-11-21T14:01:09;10.30;;;4.13;;
83471;SDS011;74051;47.120;18.370;2023-11-21T14:03:51;8.65;;;4.35;;
83471;SDS011;74051;47.120;18.370;2023-11-21T14:06:26;7.97;;;4.25;;
83471;SDS011;74051;47.120;18.370;2023-11-21T14:09:00;13.50;;;4.75;;
83471;SDS011;74051;47.120;18.370;2023-11-21T14:11:32;6.88;;;4.28;;
83471;SDS011;74051;47.120;18.370;2023-11-21T14:14:00;7.40;;;4.88;;
83471;SDS011;74051;47.120;18.370;2023-11-21T14:16:28;9.65;;;4.50;;
83471;SDS011;74051;47.120;18.370;2023-11-21T14:18:54;14.98;;;5.32;;
83471;SDS011;74051;47.120;18.370;2023-11-21T14:21:29;9.15;;;4.57;;
83471;SDS011;74051;47.120;18.370;2023-11-21T14:23:55;9.65;;;5.80;;
83471;SDS011;74051;47.120;18.370;2023-11-21T14:26:22;15.20;;;6.25;;
83471;SDS011;74051;47.120;18.370;2023-11-21T14:28:50;15.23;;;6.80;;
83471;SDS011;74051;47.120;18.370;2023-11-21T14:31:17;40.97;;;15.07;;
83471;SDS011;74051;47.120;18.370;2023-11-21T14:33:44;43.55;;;15.77;;
83471;SDS011;74051;47.120;18.370;2023-11-21T14:36:11;21.15;;;9.57;;
83471;SDS011;74051;47.120;18.370;2023-11-21T14:38:37;24.95;;;11.50;;
83471;SDS011;74051;47.120;18.370;2023-11-21T14:41:05;17.13;;;9.45;;